Share

Seminole, TX

7:55 AM CDT on April 23, 2014 (GMT -0500)
Seminole (KGNC) Elev 3314 ft | 32.68 °N, 102.65 °W | Change Station

Current weather conditions updated 20 minutes ago

Clear
Clear
61 °F
Feels Like 61 °F
N
7
Wind Variable Wind from SE
Sunrise 7:11 AM
Sunset 8:26 PM
Moon Last Quarter

Today is forecast to be Warmer than yesterday.

Pressure 29.88 in
Visibility 10.0 miles
Clouds Clear
Dew Point 49 °F
Humidity 65%
Rainfall 0.00 in
Snow Depth Not available.
UV 0 out of 16
Pollen 8.30 out of 12
Air Quality Not available.
Flu Activity Local Activity
METAR KGNC 231235Z AUTO 14006KT 10SM CLR 16/10 A2988 RMK AO2 T01600095

More Conditions Fewer Conditions

Pressure 29.88 in
Visibility 10.0 miles
Clouds Clear
Dew Point 49 °F
Humidity 65%
Rainfall 0.00 in
Snow Depth Not available.
UV 0 out of 16
Pollen 8.30 out of 12
Air Quality Not available.
Flu Activity Local Activity
METAR KGNC 231235Z AUTO 14006KT 10SM CLR 16/10 A2988 RMK AO2 T01600095

More Conditions Fewer Conditions

10-Day Weather Forecast

Almanac

Astronomy

Apr. 23, 2014 Rise Set
Actual Time 7:11 AM CDT 8:26 PM CDT
Civil Twilight 6:46 AM CDT 8:52 PM CDT
Nautical Twilight 6:15 AM CDT 9:22 PM CDT
Astronomical Twilight 5:43 AM CDT 9:54 PM CDT
Moon 3:25 AM CDT 2:56 PM CDT
Length of Visible Light 14h 06m
Length of Day
13h 14m
Tomorrow will be 1m 48s longer.
Last Quarter, 36% of the Moon is Illuminated
Today
Last Quarter
Apr 29
New
May 6
First Quarter
May 14
Full
May 21
Last Quarter

Today's Extremes

State Highs State Lows

Community

  • Earth Day Spectrum Ove' Blue
    Earth Day Spectrum Ove' Blue
  • April Sunset
    April Sunset
  • Waiting..
    Waiting..
  • Sunset...
    Sunset...
  • Happy outdoor day
    Happy outdoor day

WunderPhotos

Upload Photos

1,704,257 photos uploaded!

Nearby

Snow Depth

Station Depth Elevation
No new snow has been reported.

Coastal Water Temperatures

Place Temperature
No Stations Reporting

Earthquake Activity

City Distance Mag. Time & Date
No recent earthquake activity has been reported nearby.
Minimum magnitude displayed is 2.5.

Nearby Weather Stations

Station Location Temp. Dew Point Humidity Wind Precip. Elev Updated Type
SW Seminole, Seminole, TX 61.7 °F 38 °F 41% South  at  0.0 mph 0.00 in / hr 3320 ft 7:55 AM CDT Rapid Fire
WT_Meso Seminole 2N, Seminole, TX 59 °F 49 °F 69% SE  at  9 mph 0.00 in / hr 3312 ft 7:25 AM CDT MADIS
WT_Meso Seagraves 1SW, Seagraves, TX 60 °F 50 °F 69% SE  at  9 mph 0.00 in / hr 3359 ft 7:25 AM CDT MADIS
Near Hospital - Andrews, Andrews, TX 64.8 °F 16 °F 15% South  at  5.6 mph 0.00 in / hr 3178 ft 7:55 AM CDT Rapid Fire

Show More Stations Show Fewer Stations

What do you think?

We're not finished. Please let us know what you like, what you don't like, and what you are still missing.